Balcarres, Canada
Current Conditions -  °F | °C
As of 12:00 AM on Thursday 29 Jan 2015 (Local Time) from CYQR Reporting Station
Overcast Overcast  
Wind Chill:   Ceiling: 1100
Heat Index: 21°   Visibility: 15mi
Dew Point: 18°   Wind: 15mph
Humidity: 86%   Direction: 330°NNW
Pressure: 30.35"   Gusts: NA
Location:  50.8°N, 103.55°W
Report Text: CYQR 290600Z 33013KT 15SM OVC011 M06/M08 A3035 RMK SC8 SLP314
Loading
Personal Weather Stations






























Interactive Weather Map New forecast layout! Learn more

10-Day Weather Forecast

Advertisements
Track Severe Weather on mobile